Latest Weather Observations for Mount Keith

IDW60801

Issued at 1:35 pm WST Friday 19 September 2014 (issued every 30 minutes, with the page automatically refreshed every 10 minutes)

About weather observations | Map of weather stations | Latest weather observations for WA | Other Formats
Station Details ID: 512019 Name: MOUNT KEITH Lat: -27.29 Lon: 120.55 Height: 542.33 m
Data from the previous 72 hours. | See also: Recent months for locations in Western Australia
Date/Time
WST
Temp
°C
App
Temp
°C
Dew
Point
Rel
Hum
%
Delta-T
°C
Wind Press
QNH
hPa
Press
MSL
hPa
Rain
since 9 am
mm
Dir
 
Spd
km/h
Gust
km/h
Spd
kts
Gust
kts
19/01:30pm 29.7 24.2 0.3 15 14.4 W 19 24 10 13 1017.7 1016.0 0.0
19/01:00pm 29.6 24.4 0.2 15 14.4 WSW 17 28 9 15 1018.2 1016.5 0.0
19/12:30pm 29.7 25.4 1.2 16 14.2 SW 13 24 7 13 1018.4 1016.7 0.0
19/12:00pm 28.8 23.2 1.3 17 13.6 SW 20 26 11 14 1018.7 1017.1 0.0
19/11:30am 28.5 24.0 1.9 18 13.3 SSW 15 28 8 15 1019.0 1017.3 0.0
19/11:00am 28.1 22.3 2.3 19 13.0 SSW 22 28 12 15 1019.4 1017.7 0.0
19/10:30am 26.7 21.8 3.9 23 11.7 S 19 26 10 14 1019.6 1017.9 0.0
19/10:00am 25.3 20.5 4.4 26 10.7 SSW 19 28 10 15 1019.9 1018.2 0.0
19/09:30am 24.5 19.7 4.8 28 10.1 SSW 19 24 10 13 1020.0 1018.3 0.0
19/09:00am 23.4 18.5 4.9 30 9.4 SSW 20 28 11 15 1020.1 1018.4 -
19/08:30am 21.9 17.1 4.5 32 8.8 SSW 19 22 10 12 1020.0 1018.3 -
19/08:00am 20.5 15.6 4.9 36 7.8 SSW 20 28 11 15 1019.7 1018.0 -
19/07:30am 19.1 14.1 4.8 39 7.1 S 20 28 11 15 1019.4 1017.7 -
19/07:00am 18.2 13.4 4.7 41 6.6 SSW 19 24 10 13 1019.1 1017.4 -
19/06:30am 17.0 12.5 4.0 42 6.3 SW 17 20 9 11 1018.6 1017.0 -
19/06:00am 16.8 11.6 3.8 42 6.2 SW 20 26 11 14 1018.2 1016.5 -
19/05:30am 17.1 11.8 3.1 39 6.6 SSW 20 28 11 15 1017.7 1016.0 -
19/05:00am 17.5 12.3 2.7 37 7.0 SSW 19 24 10 13 1017.2 1015.5 -
19/04:30am 18.0 12.6 2.3 35 7.4 SSW 20 26 11 14 1016.9 1015.3 -
19/04:00am 18.5 12.6 1.9 33 7.7 SSW 22 28 12 15 1016.7 1015.0 -
19/03:30am 18.9 13.3 1.4 31 8.1 SSW 20 26 11 14 1016.5 1014.8 -
19/03:00am 19.2 14.1 0.8 29 8.4 SSW 17 20 9 11 1016.4 1014.7 0.0
19/02:30am 19.9 15.1 0.4 27 8.9 SSW 15 20 8 11 1016.4 1014.7 -
19/02:00am 20.2 15.8 0.1 26 9.2 SW 13 19 7 10 1016.4 1014.7 -
19/01:30am 20.4 15.6 0.3 26 9.2 WSW 15 22 8 12 1016.6 1014.9 -
19/01:00am 21.2 16.0 -0.1 24 9.8 SW 17 22 9 12 1016.5 1014.8 -
19/12:30am 21.3 16.5 -0.1 24 9.8 WSW 15 19 8 10 1016.6 1014.9 -
19/12:00am 19.0 14.7 -2.0 24 9.1 W 11 13 6 7 1017.1 1015.4 -
 
Date/Time
WST
Temp
°C
App
Temp
°C
Dew
Point
Rel
Hum
%
Delta-T
°C
Wind Press
QNH
hPa
Press
MSL
hPa
Rain
since 9 am
mm
Dir
 
Spd
km/h
Gust
km/h
Spd
kts
Gust
kts
18/11:30pm 19.9 15.1 -2.4 22 9.6 W 13 17 7 9 1017.2 1015.5 -
18/11:00pm 21.2 16.4 -2.6 20 10.4 W 13 15 7 8 1017.2 1015.5 -
18/10:30pm 22.1 16.9 -2.6 19 10.9 WSW 15 17 8 9 1017.2 1015.5 -
18/10:00pm 23.0 17.4 -2.6 18 11.3 W 17 20 9 11 1017.1 1015.4 -
18/09:30pm 24.3 18.7 -3.1 16 12.2 W 17 20 9 11 1017.1 1015.4 -
18/09:00pm 24.7 18.5 -2.8 16 12.3 W 20 24 11 13 1017.2 1015.5 -
18/08:30pm 24.8 19.2 -2.7 16 12.4 W 17 20 9 11 1016.8 1015.1 -
18/08:00pm 24.5 19.6 -3.8 15 12.4 W 13 17 7 9 1016.7 1015.0 -
18/07:30pm 24.9 20.4 -3.5 15 12.6 W 11 13 6 7 1016.4 1014.7 -
18/07:00pm 26.9 21.6 -3.8 13 13.7 W 15 19 8 10 1016.0 1014.3 -
18/06:30pm 27.6 22.3 -3.3 13 14.0 WNW 15 17 8 9 1015.5 1013.8 -
18/06:00pm 28.7 23.4 -3.5 12 14.7 WNW 15 20 8 11 1014.9 1013.2 -
18/05:30pm 30.0 23.7 -3.6 11 15.5 WNW 20 32 11 17 1014.6 1012.9 -
18/05:00pm 30.9 23.8 -4.2 10 16.1 WNW 24 33 13 18 1014.2 1012.5 -
18/04:30pm 31.2 24.1 -4.0 10 16.2 NW 24 35 13 19 1014.0 1012.3 -
18/04:00pm 31.7 24.8 -2.3 11 16.2 WNW 24 35 13 19 1013.7 1011.9 -
18/03:30pm 31.4 24.5 -2.6 11 16.1 WNW 24 37 13 20 1013.7 1011.9 -
18/03:00pm 31.8 24.3 -1.1 12 16.0 WNW 28 43 15 23 1013.9 1012.2 0.0
18/02:30pm 31.3 24.9 -1.5 12 15.8 NW 22 37 12 20 1014.1 1012.4 0.0
18/02:00pm 31.6 24.7 -2.4 11 16.2 NW 24 35 13 19 1014.3 1012.6 0.0
18/01:30pm 31.0 23.8 -1.7 12 15.7 WNW 26 41 14 22 1014.7 1013.0 0.0
18/01:00pm 30.9 23.7 -1.8 12 15.6 WNW 26 44 14 24 1014.9 1013.2 0.0
18/12:30pm 30.7 24.3 -1.9 12 15.5 NW 22 37 12 20 1015.4 1013.7 0.0
18/12:00pm 29.4 21.8 -1.9 13 14.8 NNW 28 44 15 24 1015.8 1014.1 0.0
18/11:30am 30.3 23.6 -1.2 13 15.2 NW 24 35 13 19 1016.2 1014.5 0.0
18/11:00am 29.7 23.7 -1.6 13 14.9 NW 20 35 11 19 1016.7 1015.0 0.0
18/10:30am 29.4 23.4 -2.9 12 15.0 NW 19 28 10 15 1016.9 1015.3 0.0
18/10:00am 28.7 23.5 -2.4 13 14.5 NNW 15 28 8 15 1017.1 1015.4 0.0
18/09:30am 28.5 22.9 -2.6 13 14.4 WNW 17 22 9 12 1017.3 1015.6 0.0
18/09:00am 27.5 22.6 -0.5 16 13.3 NW 15 20 8 11 1017.4 1015.7 -
18/08:30am 26.6 21.6 -1.3 16 13.0 WNW 15 24 8 13 1017.5 1015.8 -
18/08:00am 26.2 21.7 0.0 18 12.5 WNW 13 20 7 11 1017.5 1015.8 -
18/07:30am 23.0 20.3 3.5 28 9.7 NW 7 11 4 6 1017.4 1015.7 -
18/07:00am 19.0 16.1 2.8 34 7.7 NW 7 9 4 5 1017.2 1015.5 -
18/06:30am 17.6 14.7 2.8 37 7.0 WNW 7 9 4 5 1017.1 1015.4 -
18/06:00am 17.1 13.8 2.3 37 6.9 W 9 9 5 5 1016.8 1015.1 -
18/05:30am 17.5 14.2 2.3 36 7.1 W 9 11 5 6 1016.4 1014.7 -
18/05:00am 17.8 14.1 2.5 36 7.2 W 11 13 6 7 1016.1 1014.4 -
18/04:30am 17.1 13.4 2.3 37 6.9 W 11 13 6 7 1015.9 1014.2 -
18/04:00am 16.7 13.3 2.0 37 6.8 W 9 13 5 7 1015.6 1013.9 -
18/03:30am 17.0 13.6 1.8 36 7.0 W 9 11 5 6 1015.5 1013.8 -
18/03:00am 17.2 14.3 1.6 35 7.2 N 6 7 3 4 1015.4 1013.7 0.0
18/02:30am 17.4 14.9 1.4 34 7.3 SW 4 7 2 4 1015.3 1013.5 -
18/02:00am 17.9 15.0 1.4 33 7.6 S 6 7 3 4 1015.1 1013.3 -
18/01:30am 18.3 15.8 1.3 32 7.8 SSW 4 7 2 4 1014.9 1013.2 -
18/01:00am 19.1 17.0 1.6 31 8.2 W 2 9 1 5 1014.8 1013.1 -
18/12:30am 20.4 17.4 1.8 29 8.8 SE 7 11 4 6 1015.1 1013.3 -
18/12:00am 20.1 17.0 1.5 29 8.7 NNW 7 9 4 5 1015.4 1013.7 -
 
Date/Time
WST
Temp
°C
App
Temp
°C
Dew
Point
Rel
Hum
%
Delta-T
°C
Wind Press
QNH
hPa
Press
MSL
hPa
Rain
since 9 am
mm
Dir
 
Spd
km/h
Gust
km/h
Spd
kts
Gust
kts
17/11:30pm 21.6 18.5 1.3 26 9.6 SE 7 11 4 6 1015.2 1013.4 -
17/11:00pm 23.1 19.2 1.4 24 10.4 SE 11 15 6 8 1015.4 1013.7 -
17/10:30pm 24.3 20.5 1.9 23 10.9 ENE 11 19 6 10 1015.6 1013.9 -
17/10:00pm 25.1 21.2 1.3 21 11.5 ENE 11 17 6 9 1015.8 1014.1 -
17/09:30pm 25.8 21.5 1.2 20 12.0 E 13 19 7 10 1015.5 1013.8 -
17/09:00pm 26.6 22.0 1.8 20 12.3 S 15 17 8 9 1015.5 1013.8 0.0
17/08:30pm 25.3 22.6 2.7 23 11.3 SE 6 9 3 5 1015.5 1013.8 -
17/08:00pm 26.0 23.0 3.9 24 11.3 ENE 9 13 5 7 1015.2 1013.4 -
17/07:30pm 26.0 23.2 3.3 23 11.5 NE 7 7 4 4 1014.8 1013.1 -
17/07:00pm 27.4 23.8 3.2 21 12.3 NNE 11 13 6 7 1014.5 1012.8 -
17/06:30pm 27.7 24.4 2.7 20 12.6 ENE 9 13 5 7 1014.0 1012.3 -
17/06:00pm 27.9 24.6 2.2 19 12.9 ENE 9 11 5 6 1014.1 1012.4 -
17/05:30pm 29.0 25.9 1.5 17 13.7 E 7 11 4 6 1013.9 1012.2 -
17/05:00pm 29.5 25.6 1.1 16 14.1 E 11 15 6 8 1013.7 1011.9 -
17/04:30pm 30.6 26.5 0.1 14 15.0 ENE 11 19 6 10 1013.5 1011.7 -
17/04:00pm 30.9 26.6 1.3 15 14.9 NE 13 19 7 10 1013.5 1011.7 -
17/03:30pm 30.5 26.2 1.0 15 14.8 ENE 13 20 7 11 1013.4 1011.6 -
17/03:00pm 30.5 25.8 1.0 15 14.8 NNE 15 20 8 11 1013.4 1011.6 -
17/02:30pm 30.1 25.7 0.6 15 14.6 N 13 22 7 12 1013.8 1012.1 -
17/02:00pm 30.1 25.7 0.6 15 14.6 NNW 13 20 7 11 1014.0 1012.3 -
17/01:30pm 29.9 25.7 1.4 16 14.3 N 13 20 7 11 1014.4 1012.7 -
17/01:00pm 29.4 24.3 1.0 16 14.1 NNE 17 26 9 14 1014.8 1013.1 -
17/12:30pm 28.4 23.1 1.8 18 13.3 NNE 19 28 10 15 1015.3 1013.5 -
17/12:00pm 28.6 22.7 2.0 18 13.4 NNE 22 33 12 18 1015.7 1014.0 -
17/11:30am 27.7 21.3 1.2 18 13.1 NNE 24 41 13 22 1016.2 1014.5 0.0
17/11:00am 26.4 19.4 1.7 20 12.2 NNE 28 41 15 22 1016.5 1014.8 0.0
17/10:30am 26.2 19.5 1.5 20 12.1 NNE 26 39 14 21 1017.2 1015.5 0.0
17/10:00am 25.4 17.7 2.2 22 11.4 NNE 32 41 17 22 1017.7 1016.0 0.0
17/09:30am 24.1 16.4 2.3 24 10.7 NNE 32 41 17 22 1017.9 1016.2 0.0
17/09:00am 23.5 17.7 2.4 25 10.3 NE 22 33 12 18 1018.1 1016.4 0.0
17/08:30am 20.8 15.6 2.6 30 8.8 ENE 19 32 10 17 1018.0 1016.3 0.0
17/08:00am 18.7 14.0 2.9 35 7.5 ENE 17 24 9 13 1017.9 1016.2 0.0
17/07:30am 16.7 12.7 2.7 39 6.6 E 13 19 7 10 1017.8 1016.1 0.0
17/07:00am 14.2 11.1 3.4 48 5.0 E 9 13 5 7 1017.6 1015.9 0.0
17/06:30am 12.8 9.8 2.1 48 4.8 ENE 7 9 4 5 1017.3 1015.6 0.0
17/06:00am 12.8 9.4 2.1 48 4.8 E 9 11 5 6 1016.8 1015.1 0.0
17/05:30am 13.0 8.9 2.3 48 4.8 ESE 13 13 7 7 1016.6 1014.9 0.0
17/05:00am 13.0 9.6 2.0 47 4.9 E 9 11 5 6 1016.5 1014.8 0.0
17/04:30am 13.6 9.5 2.2 46 5.1 ESE 13 13 7 7 1016.4 1014.7 0.0
17/04:00am 14.3 10.6 2.2 44 5.5 ENE 11 13 6 7 1016.1 1014.4 0.0
17/03:30am 15.0 11.3 2.5 43 5.7 ENE 11 15 6 8 1016.0 1014.3 0.0
17/03:00am 14.9 11.5 1.8 41 5.9 ENE 9 11 5 6 1016.1 1014.4 0.0
17/02:30am 16.0 11.9 2.1 39 6.4 E 13 19 7 10 1015.9 1014.2 0.0
17/02:00am 16.7 12.2 2.0 37 6.8 E 15 19 8 10 1016.0 1014.3 0.0
17/01:30am 17.4 12.8 1.8 35 7.2 E 15 22 8 12 1016.1 1014.4 0.0
17/01:00am 17.8 12.9 2.2 35 7.3 E 17 22 9 12 1016.3 1014.6 0.0
17/12:30am 18.0 13.1 1.9 34 7.5 E 17 20 9 11 1016.4 1014.7 0.0
17/12:00am 18.5 13.6 1.9 33 7.7 E 17 24 9 13 1016.4 1014.7 0.0
 
Date/Time
WST
Temp
°C
App
Temp
°C
Dew
Point
Rel
Hum
%
Delta-T
°C
Wind Press
QNH
hPa
Press
MSL
hPa
Rain
since 9 am
mm
Dir
 
Spd
km/h
Gust
km/h
Spd
kts
Gust
kts
16/11:30pm 18.9 14.0 2.3 33 7.8 E 17 24 9 13 1016.7 1015.0 0.0
16/11:00pm 19.4 14.0 2.3 32 8.1 E 20 32 11 17 1016.5 1014.8 0.0
16/10:30pm 20.0 14.1 1.9 30 8.5 E 22 32 12 17 1016.6 1014.9 0.0
16/10:00pm 20.5 15.0 1.9 29 8.8 E 20 28 11 15 1016.6 1014.9 0.0
16/09:30pm 21.1 15.2 1.9 28 9.1 E 22 32 12 17 1016.7 1015.0 0.0
16/09:00pm 21.5 16.0 1.7 27 9.4 E 20 32 11 17 1016.7 1015.0 0.0
16/08:30pm 21.9 15.6 1.5 26 9.7 ESE 24 35 13 19 1016.7 1015.0 0.0
16/08:00pm 22.5 15.8 1.5 25 10.0 ESE 26 35 14 19 1016.5 1014.8 0.0
16/07:30pm 23.1 16.7 0.9 23 10.5 ESE 24 32 13 17 1016.3 1014.6 0.0
16/07:00pm 23.8 18.1 0.8 22 10.9 ESE 20 32 11 17 1016.1 1014.4 0.0
16/06:30pm 24.5 18.8 0.8 21 11.3 ESE 20 28 11 15 1015.6 1013.9 0.0
16/06:00pm 25.3 19.6 0.7 20 11.8 ESE 20 28 11 15 1015.1 1013.3 0.0
16/05:30pm 26.1 20.6 0.7 19 12.3 E 19 30 10 16 1014.5 1012.8 0.0
16/05:00pm 26.7 20.0 1.2 19 12.5 E 26 35 14 19 1014.4 1012.7 0.0
16/04:30pm 27.2 20.8 0.8 18 12.9 ESE 24 35 13 19 1014.3 1012.6 0.0
16/04:00pm 27.7 21.0 1.2 18 13.1 ESE 26 39 14 21 1014.3 1012.6 0.0
16/03:30pm 27.7 20.5 0.5 17 13.2 ESE 28 37 15 20 1014.2 1012.5 0.0
16/03:09pm 27.7 20.5 0.5 17 13.2 ESE 28 46 15 25 1014.4 1012.7 0.0
16/03:00pm 27.6 20.9 1.2 18 13.0 E 26 33 14 18 1014.5 1012.8 0.0
16/02:30pm 27.6 21.1 0.4 17 13.2 E 24 39 13 21 1014.9 1013.2 0.0
16/02:00pm 27.3 21.3 0.9 18 12.9 E 22 37 12 20 1014.9 1013.2 0.0

Other Formats:

Comma delimited format used in spreadsheet applications
http://www.bom.gov.au/fwo/IDW60801/IDW60801.99434.axf

JavaScript Object Notation format (JSON) in row-major order
http://www.bom.gov.au/fwo/IDW60801/IDW60801.99434.json